Main page
METAR-TAF:

METAR-TAF

Airports :

Tartu Airport

Tartu, Estonia

latitude: 58-18N, longitude: 026-44E, elevation: 59 m

Current weather observation

The report was made 11 minutes ago, at 11:50 UTC
Wind 11 kt from the West
Temperature 4°C
Humidity 81%
Pressure 1013 hPa
Visibility 10 km or more
Scattered clouds at a height of 1000 ft
Broken clouds at a height of 1500 ft
Broken clouds at a height of 2900 ft

METAR: EETU 201150Z 26011KT 9999 SCT010 BKN015 BKN029 04/01 Q1013

Time: 14:01 (12:01 UTC)

Forecast

The report was made 15 hours and 1 minutes ago, at 21:00 UTC
Forecast valid from 19 at 22 UTC to 20 at 04 UTC
Wind 5 kt from the West/Southwest
Visibility: 2000 m
Broken clouds at a height of 500 ft
Overcast at a height of 1000 ft
Overcast at a height of 300 ft
rain, drizzle, mist

TAF: EETU 192100Z 1922/2004 24005KT 8000 BKN005 OVC010 TEMP 1922/2004 2000 RADZ BR OVC003

Weather observations and forecasts of more than 4000 airports (METAR and TAF reports).

The available stations are represented by yellow and red dots on the map.

Hover mouse over dot to see the name of the station.

Then click to see weather observations and forecasts.

To change the map : click on the green buttons with a black cross to zoom in, on the green button with a dash to zoom out, or on the green arrows for adjacent maps.


METAR-TAF: